This is the latest recevied weather packets stored in our database for station/object KGRR-WX. If no packets are shown the sender has not sent any weather packets the latest 10 day(s).
| Time | Temp. | Humidity | Pressure | Rain* | Wind** | Luminosity | Snow |
|---|---|---|---|---|---|---|---|
| 1777790705 | 1.67° C | 66% | 985.8 hPa | 0 mm | - | - | - |
| 1777789814 | 2.22° C | 67% | 985.8 hPa | 0 mm | - | - | - |
| 1777788906 | 2.22° C | 67% | 985.8 hPa | 0 mm | - | - | - |
| 1777788025 | 2.78° C | 67% | 985.8 hPa | 0 mm | - | - | - |
| 1777787105 | 2.78° C | 70% | 986.3 hPa | 0 mm | - | - | - |
| 1777785305 | 1.67° C | 74% | 986.4 hPa | 0 mm | - | - | - |
| 1777784418 | 1.67° C | 74% | 986.4 hPa | 0 mm | - | - | - |
| 1777783505 | 2.22° C | 71% | 986.8 hPa | 0 mm | - | - | - |
| 1777782621 | 2.22° C | 73% | 986.2 hPa | 0 mm | - | - | - |
| 1777781706 | 2.22° C | 73% | 986.2 hPa | 0 mm | - | - | - |
| 1777780824 | 2.78° C | 73% | 986.2 hPa | 0 mm | - | - | - |
| 1777779905 | 2.78° C | 65% | 987.3 hPa | 0 mm | - | - | - |
| 1777779022 | 2.78° C | 68% | 987.4 hPa | 0 mm | - | - | - |
| 1777778105 | 3.33° C | 68% | 987.5 hPa | 0 mm | - | - | - |
| 1777777224 | 3.33° C | 68% | 987.5 hPa | 0 mm | - | - | - |
| 1777776305 | 3.89° C | 59% | 988.4 hPa | 0 mm | - | - | - |
| 1777775421 | 3.89° C | 63% | 987.8 hPa | 0 mm | - | - | - |
| 1777774505 | 3.89° C | 63% | 987.8 hPa | 0 mm | - | - | - |
| 1777773624 | 4.44° C | 63% | 987.8 hPa | 0 mm | - | - | - |
| 1777772705 | 5° C | 55% | 987.4 hPa | 0 mm | - | - | - |
| 1777771820 | 5° C | 55% | 987.4 hPa | 0 mm | - | - | - |
| 1777770905 | 5.56° C | 55% | 987.4 hPa | 0 mm | - | - | - |
| 1777770023 | 5.56° C | 55% | 987.4 hPa | 0 mm | - | - | - |
| 1777769105 | 6.11° C | 39% | 988.4 hPa | 0 mm | - | - | - |
| 1777768213 | 6.67° C | 39% | 988.4 hPa | 0 mm | - | - | - |
* Rain latest hour (hover to see other rain measurements)
** Current wind speed in m/s (hover to see current wind gust speed)